Arcata, CA

10:02 AM PST on January 30, 2015 (GMT -0800)
APRSWXNET Arcata CA US | Change Station
CLOSE
Current Station
Personal Weather Station
Location: Arcata, CA
Elevation: 183 ft
Nearby Weather Stations

Elev 183 ft 40.88 °N, 124.08 °W | Updated 31 minutes ago

Overcast
Overcast
51 °F
Feels Like 51 °F
N
1
Wind Variable Wind from SW
Gusts 3.0 mph

Today
High -- | Low -- °F
--% Chance of Precip.
Yesterday
High -- | Low -- °F
Precip. -- in
7:28 AM 5:31 PM
Waxing Gibbous, 84% visible
Pressure 30.14 in
Visibility 10.0 miles
Clouds Scattered Clouds 800 ft
Dew Point 48 °F
Humidity 90%
Rainfall 0.10 in
Snow Depth Not available.
UV 1 out of 12
Pollen 5.90 out of 12
Air Quality Not available.
Flu Activity Not available.
METAR KACV 301753Z AUTO 00000KT 10SM SCT008 11/08 A3012 RMK AO2 SLP205 T01060083 10106 20089 56005

More Conditions Fewer Conditions

Pressure 30.14 in
Visibility 10.0 miles
Clouds Scattered Clouds 800 ft
Dew Point 48 °F
Humidity 90%
Rainfall 0.10 in
Snow Depth Not available.
UV 1 out of 12
Pollen 5.90 out of 12
Air Quality Not available.
Flu Activity Not available.
METAR KACV 301753Z AUTO 00000KT 10SM SCT008 11/08 A3012 RMK AO2 SLP205 T01060083 10106 20089 56005

More Conditions Fewer Conditions

10-Day Weather Forecast

Almanac

Astronomy

Jan. 30, 2015 Rise Set
Actual Time
Civil Twilight
Nautical Twilight
Astronomical Twilight
Moon
Length of Visible Light
Length of Day
Tomorrow will be .
, % of the Moon is Illuminated

Today's Extremes

State Highs State Lows

Community

WunderPhotos

Upload Photos

1,791,845 photos uploaded!

WunderBlogs® & News

Nearby

Air Quality

  Air Quality AQ Index Pollutant
Not available.

Snow Depth

Station Depth Elevation

Earthquake Activity

City Distance Mag. Time & Date
Minimum magnitude displayed is 2.5.

Coastal Water Temperatures

Place Temperature

Nearby Weather Stations